Happy Camp, California
Current Conditions -  °F | °C
As of 12:56 PM on Monday 24 Nov 2014 (Local Time) from KCEC Reporting Station
Overcast Overcast  
Wind Chill: 58°   Ceiling: 4700
Heat Index: 58°   Visibility: 10mi
Dew Point: 46°   Wind: 8mph
Humidity: 65%   Direction: 180°S
Pressure: 30.39"   Gusts: NA
Location:  41.79°N, 123.38°W
Report Text: KCEC 242056Z AUTO 18007KT 10SM OVC047 14/08 A3039 RMK AO2 SLP292 T01440078 58004
Loading
Personal Weather Stations






























Interactive Weather Map New forecast layout! Learn more

10-Day Weather Forecast

Advertisements
Track Severe Weather on mobile